Time;durP1;ratioP1;P1;durP2;ratioP2;P2;SDS_P1;SDS_P2;PMS_P1;PMS_P2;Temp;Humidity;BMP_temperature;BMP_pressure;BME280_temperature;BME280_humidity;BME280_pressure;Samples;Min_cycle;Max_cycle;Signal;HPM_P1;HPM_P2
2022/01/16 00:00:16;;;;;;;69.93;28.85;;;;;;;;;;5051752;28;20582;-65
2022/01/16 00:05:30;;;;;;;79.65;29.80;;;;;;;;;;5055708;28;21073;-66
2022/01/16 00:07:57;;;;;;;78.55;29.80;;;;;;;;;;5061836;28;20140;-65
2022/01/16 00:10:27;;;;;;;87.85;31.20;;;;;;;;;;5053476;28;20107;-65
2022/01/16 00:12:58;;;;;;;72.22;29.35;;;;;;;;;;5054349;28;20054;-65
2022/01/16 00:15:24;;;;;;;79.03;29.50;;;;;;;;;;5054120;28;20058;-65
2022/01/16 00:18:00;;;;;;;80.90;29.90;;;;;;;;;;5060676;28;20053;-65
2022/01/16 00:20:26;;;;;;;79.95;29.67;;;;;;;;;;5052660;28;20053;-65
2022/01/16 00:22:53;;;;;;;76.60;30.80;;;;;;;;;;5051980;28;20514;-66
2022/01/16 00:25:19;;;;;;;70.32;28.52;;;;;;;;;;5052782;28;20063;-65
2022/01/16 00:27:46;;;;;;;69.20;28.83;;;;;;;;;;5041492;28;20065;-65
2022/01/16 00:30:13;;;;;;;75.80;28.35;;;;;;;;;;5057196;28;20141;-66
2022/01/16 00:32:39;;;;;;;82.65;30.67;;;;;;;;;;5054076;28;20136;-65
2022/01/16 00:35:06;;;;;;;73.15;29.00;;;;;;;;;;5053746;28;20484;-65
2022/01/16 00:37:32;;;;;;;73.57;28.13;;;;;;;;;;5053262;28;20053;-65
2022/01/16 00:39:58;;;;;;;76.43;29.98;;;;;;;;;;5053346;28;20049;-65
2022/01/16 00:42:25;;;;;;;88.70;29.20;;;;;;;;;;5053319;28;20049;-65
2022/01/16 00:44:51;;;;;;;69.95;28.92;;;;;;;;;;5052830;28;20054;-65
2022/01/16 00:47:17;;;;;;;77.72;29.30;;;;;;;;;;5050532;28;20083;-65
2022/01/16 00:49:44;;;;;;;71.22;29.48;;;;;;;;;;5050928;28;20056;-65
2022/01/16 00:52:10;;;;;;;82.55;28.48;;;;;;;;;;5052866;28;20136;-65
2022/01/16 00:54:37;;;;;;;61.22;26.95;;;;;;;;;;5053329;28;20172;-65
2022/01/16 00:57:03;;;;;;;71.20;28.45;;;;;;;;;;5052595;28;20057;-65
2022/01/16 00:59:30;;;;;;;73.70;28.70;;;;;;;;;;5053305;28;20526;-65
2022/01/16 01:01:56;;;;;;;74.60;30.38;;;;;;;;;;5052697;28;20064;-65
2022/01/16 01:04:23;;;;;;;58.13;26.60;;;;;;;;;;5053211;28;20140;-65
2022/01/16 01:06:51;;;;;;;72.50;28.23;;;;;;;;;;5052353;28;20056;-66
2022/01/16 01:09:17;;;;;;;68.15;27.73;;;;;;;;;;5052897;28;20049;-66
2022/01/16 01:11:46;;;;;;;69.57;27.83;;;;;;;;;;5052791;28;20064;-66
2022/01/16 01:14:22;;;;;;;65.10;26.70;;;;;;;;;;5052774;28;20352;-65
2022/01/16 01:16:52;;;;;;;64.85;27.35;;;;;;;;;;5046688;28;20046;-65
2022/01/16 01:19:20;;;;;;;76.72;29.15;;;;;;;;;;5052793;28;20155;-65
2022/01/16 01:21:47;;;;;;;68.50;26.30;;;;;;;;;;5052575;28;20515;-65
2022/01/16 01:24:13;;;;;;;85.57;29.30;;;;;;;;;;5051307;28;20060;-65
2022/01/16 01:26:50;;;;;;;63.38;27.50;;;;;;;;;;5052183;28;20064;-66
2022/01/16 01:29:19;;;;;;;67.30;28.50;;;;;;;;;;5052375;28;20045;-66
2022/01/16 01:31:46;;;;;;;70.53;28.70;;;;;;;;;;5037149;28;20053;-66
2022/01/16 01:34:12;;;;;;;75.07;27.80;;;;;;;;;;5056953;28;20526;-66
2022/01/16 01:36:39;;;;;;;70.55;27.73;;;;;;;;;;5052347;28;20513;-65
2022/01/16 01:39:05;;;;;;;63.65;27.42;;;;;;;;;;5052479;28;20077;-65
2022/01/16 01:41:31;;;;;;;65.30;26.45;;;;;;;;;;5058890;28;20128;-65
2022/01/16 01:52:13;;;;;;;70.88;27.20;;;;;;;;;;5050959;28;20061;-65
2022/01/16 01:54:39;;;;;;;74.85;29.15;;;;;;;;;;5049748;28;20075;-65
2022/01/16 01:57:05;;;;;;;65.28;27.45;;;;;;;;;;5051190;28;20050;-65
2022/01/16 01:59:32;;;;;;;72.88;28.25;;;;;;;;;;5053008;28;20061;-65
2022/01/16 02:01:58;;;;;;;63.08;26.40;;;;;;;;;;5055329;28;20580;-64
2022/01/16 02:04:24;;;;;;;65.32;26.90;;;;;;;;;;5055747;28;20057;-65
2022/01/16 02:06:51;;;;;;;70.82;27.63;;;;;;;;;;5063328;28;20506;-65
2022/01/16 02:09:17;;;;;;;61.22;26.23;;;;;;;;;;5061919;28;20112;-64
2022/01/16 02:11:44;;;;;;;65.50;26.90;;;;;;;;;;5055816;28;20427;-65
2022/01/16 02:28:03;;;;;;;78.63;28.60;;;;;;;;;;5054713;28;20140;-65
2022/01/16 02:35:39;;;;;;;88.55;31.88;;;;;;;;;;5055170;28;20136;-65
2022/01/16 02:38:06;;;;;;;92.68;31.65;;;;;;;;;;5070357;28;20114;-64
2022/01/16 02:40:32;;;;;;;87.55;30.77;;;;;;;;;;5060913;28;20073;-65
2022/01/16 02:42:59;;;;;;;82.15;30.75;;;;;;;;;;5054832;28;20053;-65
2022/01/16 02:45:30;;;;;;;85.38;31.40;;;;;;;;;;5054712;28;20508;-65
2022/01/16 02:47:58;;;;;;;81.47;29.55;;;;;;;;;;5055435;28;20555;-65
2022/01/16 02:50:24;;;;;;;87.22;32.10;;;;;;;;;;5054391;28;20061;-65
2022/01/16 02:52:51;;;;;;;91.60;31.08;;;;;;;;;;5055267;28;20053;-65
2022/01/16 02:55:20;;;;;;;89.57;32.17;;;;;;;;;;5055464;28;20148;-65
2022/01/16 02:57:47;;;;;;;89.55;32.33;;;;;;;;;;5069047;28;20506;-65
2022/01/16 03:00:13;;;;;;;88.93;32.60;;;;;;;;;;5065401;28;20053;-65
2022/01/16 03:02:40;;;;;;;79.70;30.67;;;;;;;;;;5054105;28;20057;-65
2022/01/16 03:05:06;;;;;;;78.30;29.60;;;;;;;;;;5054984;28;20056;-65
2022/01/16 03:07:32;;;;;;;90.97;31.00;;;;;;;;;;5054961;28;20061;-65
2022/01/16 03:10:51;;;;;;;79.05;29.08;;;;;;;;;;5068926;28;20054;-65
2022/01/16 03:12:52;;;;;;;90.10;30.15;;;;;;;;;;5047460;28;20045;-65
2022/01/16 03:15:20;;;;;;;75.45;30.30;;;;;;;;;;5063382;28;20053;-65
2022/01/16 03:23:18;;;;;;;79.75;32.42;;;;;;;;;;5054017;28;20061;-65
2022/01/16 03:25:45;;;;;;;78.57;29.08;;;;;;;;;;5054487;28;20084;-65
2022/01/16 03:28:11;;;;;;;81.43;30.27;;;;;;;;;;5066675;28;20053;-65
2022/01/16 03:30:38;;;;;;;89.65;30.98;;;;;;;;;;5054507;28;20061;-65
2022/01/16 03:33:04;;;;;;;88.15;32.20;;;;;;;;;;5054048;28;20489;-65
2022/01/16 03:35:30;;;;;;;79.47;29.67;;;;;;;;;;5054490;28;20497;-65
2022/01/16 03:37:57;;;;;;;92.80;32.60;;;;;;;;;;5053969;28;20196;-65
2022/01/16 03:40:24;;;;;;;93.93;32.80;;;;;;;;;;5053275;28;20060;-65
2022/01/16 03:42:51;;;;;;;97.53;32.35;;;;;;;;;;5054180;28;20054;-65
2022/01/16 03:45:18;;;;;;;92.05;30.95;;;;;;;;;;5054047;28;20073;-65
2022/01/16 03:47:44;;;;;;;111.57;32.30;;;;;;;;;;5053607;28;20064;-66
2022/01/16 03:50:11;;;;;;;97.10;30.95;;;;;;;;;;5053783;28;20057;-65
2022/01/16 03:52:37;;;;;;;96.97;33.40;;;;;;;;;;5053948;28;20100;-65
2022/01/16 03:55:04;;;;;;;87.70;31.33;;;;;;;;;;5053884;28;20058;-65
2022/01/16 03:57:30;;;;;;;99.35;32.58;;;;;;;;;;5061745;28;20050;-65
2022/01/16 03:59:57;;;;;;;89.78;32.03;;;;;;;;;;5054117;28;20064;-65
2022/01/16 04:02:24;;;;;;;95.50;31.23;;;;;;;;;;5053056;28;20116;-65
2022/01/16 04:04:51;;;;;;;93.75;32.65;;;;;;;;;;5053847;28;20085;-65
2022/01/16 04:07:24;;;;;;;100.50;32.67;;;;;;;;;;5059738;28;20489;-65
2022/01/16 04:09:51;;;;;;;81.88;30.77;;;;;;;;;;5053633;28;20059;-65
2022/01/16 04:12:21;;;;;;;98.60;33.85;;;;;;;;;;5052877;28;20056;-65
2022/01/16 04:17:19;;;;;;;103.90;32.92;;;;;;;;;;5060437;28;20053;-65
2022/01/16 04:19:45;;;;;;;110.10;34.97;;;;;;;;;;5053302;28;20060;-65
2022/01/16 04:22:12;;;;;;;90.15;33.55;;;;;;;;;;5052503;28;20056;-65
2022/01/16 04:24:39;;;;;;;87.88;32.35;;;;;;;;;;5052880;28;20172;-65
2022/01/16 04:27:05;;;;;;;95.63;33.33;;;;;;;;;;5058290;28;20054;-65
2022/01/16 04:29:32;;;;;;;101.95;36.08;;;;;;;;;;5053586;28;20096;-65
2022/01/16 04:31:58;;;;;;;98.28;34.83;;;;;;;;;;5052501;28;20045;-65
2022/01/16 04:34:24;;;;;;;96.90;35.72;;;;;;;;;;5051714;28;20054;-65
2022/01/16 04:36:51;;;;;;;102.03;34.47;;;;;;;;;;5053625;28;20069;-65
2022/01/16 04:39:20;;;;;;;92.47;31.90;;;;;;;;;;5052576;28;20064;-66
2022/01/16 04:44:31;;;;;;;86.10;33.00;;;;;;;;;;5052911;28;20056;-65
2022/01/16 04:46:58;;;;;;;104.95;36.78;;;;;;;;;;5052720;28;20059;-65
2022/01/16 04:49:31;;;;;;;97.13;35.00;;;;;;;;;;5052887;28;20060;-65
2022/01/16 04:51:57;;;;;;;101.28;35.40;;;;;;;;;;5058906;28;20081;-65
2022/01/16 04:54:25;;;;;;;106.95;38.03;;;;;;;;;;5061082;28;20057;-65
2022/01/16 04:56:51;;;;;;;96.30;35.45;;;;;;;;;;5065218;28;20057;-65
2022/01/16 04:59:18;;;;;;;104.63;36.45;;;;;;;;;;5073411;28;20082;-65
2022/01/16 05:01:44;;;;;;;99.35;35.83;;;;;;;;;;5053209;28;20053;-65
2022/01/16 05:04:11;;;;;;;110.38;36.92;;;;;;;;;;5052609;28;20053;-65
2022/01/16 05:06:37;;;;;;;98.95;37.00;;;;;;;;;;5054196;28;20077;-65
2022/01/16 05:09:04;;;;;;;106.65;36.58;;;;;;;;;;5052765;28;20524;-65
2022/01/16 05:11:30;;;;;;;91.45;34.10;;;;;;;;;;5065264;28;20050;-66
2022/01/16 05:16:39;;;;;;;99.75;37.85;;;;;;;;;;5055380;28;20136;-66
2022/01/16 05:19:06;;;;;;;89.00;35.75;;;;;;;;;;5052858;28;20056;-65
2022/01/16 05:21:32;;;;;;;92.03;37.67;;;;;;;;;;5052388;28;20053;-65
2022/01/16 05:23:59;;;;;;;91.82;37.03;;;;;;;;;;5053087;28;20057;-66
2022/01/16 05:26:29;;;;;;;98.50;39.65;;;;;;;;;;5060422;28;20057;-65
2022/01/16 05:28:55;;;;;;;108.45;38.65;;;;;;;;;;5056954;28;20049;-64
2022/01/16 05:31:23;;;;;;;94.38;38.00;;;;;;;;;;5052888;28;20049;-65
2022/01/16 05:33:49;;;;;;;86.82;38.33;;;;;;;;;;5052523;28;20049;-65
2022/01/16 05:36:18;;;;;;;91.30;39.60;;;;;;;;;;5053755;28;20057;-65
2022/01/16 05:38:44;;;;;;;92.93;38.25;;;;;;;;;;5052798;28;20053;-64
2022/01/16 05:41:10;;;;;;;95.20;39.40;;;;;;;;;;5051942;28;20053;-66
2022/01/16 05:43:37;;;;;;;91.68;39.28;;;;;;;;;;5052377;28;20488;-66
2022/01/16 05:46:03;;;;;;;90.57;39.22;;;;;;;;;;5052534;28;20059;-66
2022/01/16 05:48:30;;;;;;;90.60;38.20;;;;;;;;;;5052371;28;20132;-64
2022/01/16 05:50:56;;;;;;;90.82;38.83;;;;;;;;;;5052078;28;20128;-65
2022/01/16 05:53:22;;;;;;;91.40;39.22;;;;;;;;;;5052050;28;20531;-66
2022/01/16 05:55:49;;;;;;;94.00;39.85;;;;;;;;;;5060575;28;20052;-66
2022/01/16 05:58:15;;;;;;;84.57;38.63;;;;;;;;;;5052182;28;20148;-66
2022/01/16 06:00:44;;;;;;;88.82;38.10;;;;;;;;;;5051367;28;20524;-65
2022/01/16 06:03:10;;;;;;;90.15;40.20;;;;;;;;;;5057121;28;20071;-66
2022/01/16 06:05:36;;;;;;;87.25;38.75;;;;;;;;;;5052975;28;20060;-65
2022/01/16 06:08:09;;;;;;;85.47;38.50;;;;;;;;;;5051978;28;20497;-65
2022/01/16 06:10:35;;;;;;;81.60;38.92;;;;;;;;;;5051830;28;20059;-65
2022/01/16 06:13:02;;;;;;;87.00;39.17;;;;;;;;;;5052138;28;20604;-65
2022/01/16 06:15:28;;;;;;;90.43;40.15;;;;;;;;;;5052004;28;20136;-65
2022/01/16 06:17:55;;;;;;;77.90;39.95;;;;;;;;;;5051661;28;20160;-65
2022/01/16 06:20:21;;;;;;;83.25;38.38;;;;;;;;;;5050427;28;20057;-65
2022/01/16 06:22:47;;;;;;;80.35;39.67;;;;;;;;;;5060179;28;20057;-65
2022/01/16 06:25:14;;;;;;;82.28;38.75;;;;;;;;;;5061193;28;20521;-65
2022/01/16 06:27:40;;;;;;;81.57;39.38;;;;;;;;;;5051559;28;20424;-66
2022/01/16 06:30:08;;;;;;;81.30;38.33;;;;;;;;;;5051501;28;20428;-66
2022/01/16 06:32:34;;;;;;;73.47;37.22;;;;;;;;;;5050220;28;20084;-65
2022/01/16 06:35:00;;;;;;;70.90;36.28;;;;;;;;;;5052482;28;20067;-66
2022/01/16 06:37:27;;;;;;;79.03;37.63;;;;;;;;;;5051069;28;20523;-65
2022/01/16 06:39:53;;;;;;;75.07;39.20;;;;;;;;;;5048645;28;20057;-65
2022/01/16 06:42:19;;;;;;;76.60;38.33;;;;;;;;;;5054575;28;20057;-66
2022/01/16 06:44:45;;;;;;;73.22;36.67;;;;;;;;;;5055141;28;20044;-65
2022/01/16 06:47:12;;;;;;;73.70;36.13;;;;;;;;;;5044123;28;20065;-68
2022/01/16 06:49:39;;;;;;;69.28;36.78;;;;;;;;;;5054118;28;20072;-67
2022/01/16 06:52:06;;;;;;;73.15;36.80;;;;;;;;;;5054963;28;20057;-67
2022/01/16 06:54:33;;;;;;;78.28;37.22;;;;;;;;;;5055196;28;20060;-66
2022/01/16 06:56:59;;;;;;;66.10;34.63;;;;;;;;;;5062086;28;20428;-67
2022/01/16 06:59:25;;;;;;;72.18;36.13;;;;;;;;;;5066037;28;20563;-65
2022/01/16 07:01:51;;;;;;;68.03;36.40;;;;;;;;;;5054076;28;20053;-66
2022/01/16 07:04:18;;;;;;;71.13;35.95;;;;;;;;;;5054771;28;20133;-66
2022/01/16 07:06:44;;;;;;;68.32;34.42;;;;;;;;;;5054339;28;20068;-67
2022/01/16 07:09:10;;;;;;;62.60;32.65;;;;;;;;;;5054860;28;20075;-66
2022/01/16 07:11:37;;;;;;;64.72;36.38;;;;;;;;;;5054915;28;20054;-65
2022/01/16 07:14:03;;;;;;;60.85;32.70;;;;;;;;;;5053638;28;20517;-67
2022/01/16 07:16:29;;;;;;;63.92;33.55;;;;;;;;;;5054513;28;20140;-66
2022/01/16 07:18:56;;;;;;;68.40;33.85;;;;;;;;;;5054704;28;20064;-66
2022/01/16 07:21:22;;;;;;;62.08;32.90;;;;;;;;;;5057906;28;20053;-65
2022/01/16 07:23:49;;;;;;;61.20;32.63;;;;;;;;;;5066680;28;20088;-65
2022/01/16 07:26:16;;;;;;;60.17;34.17;;;;;;;;;;5061066;28;20440;-67
2022/01/16 07:28:43;;;;;;;62.90;33.15;;;;;;;;;;5053514;28;20061;-67
2022/01/16 07:31:09;;;;;;;61.30;32.95;;;;;;;;;;5054376;28;20068;-65
2022/01/16 07:33:36;;;;;;;57.55;30.33;;;;;;;;;;5058527;28;20119;-67
2022/01/16 07:36:02;;;;;;;57.55;31.73;;;;;;;;;;5052702;28;20053;-66
2022/01/16 07:38:29;;;;;;;57.20;29.38;;;;;;;;;;5052473;28;20813;-67
2022/01/16 07:40:55;;;;;;;52.55;28.95;;;;;;;;;;5052167;28;20060;-65
2022/01/16 07:43:21;;;;;;;53.40;28.42;;;;;;;;;;5053873;28;20050;-65
2022/01/16 07:45:48;;;;;;;51.00;28.92;;;;;;;;;;5053901;28;20104;-67
2022/01/16 07:48:14;;;;;;;54.35;28.55;;;;;;;;;;5053182;28;20069;-66
2022/01/16 07:50:40;;;;;;;54.30;28.23;;;;;;;;;;5051298;28;20045;-67
2022/01/16 07:53:07;;;;;;;58.50;28.83;;;;;;;;;;5053525;28;20050;-66
2022/01/16 07:55:34;;;;;;;46.72;28.55;;;;;;;;;;5052792;28;20053;-66
2022/01/16 07:58:00;;;;;;;45.67;26.23;;;;;;;;;;5034495;28;20056;-66
2022/01/16 08:00:30;;;;;;;45.47;26.98;;;;;;;;;;5050014;28;20155;-66
2022/01/16 08:02:57;;;;;;;44.25;26.85;;;;;;;;;;5053711;28;20068;-66
2022/01/16 08:05:24;;;;;;;44.58;25.63;;;;;;;;;;5053544;28;20092;-66
2022/01/16 08:07:51;;;;;;;39.90;24.55;;;;;;;;;;5052305;28;20060;-65
2022/01/16 08:10:17;;;;;;;45.78;25.25;;;;;;;;;;5053525;28;20049;-65
2022/01/16 08:12:43;;;;;;;46.53;25.85;;;;;;;;;;5065632;28;20440;-65
2022/01/16 08:15:10;;;;;;;43.40;24.23;;;;;;;;;;5057717;28;20049;-65
2022/01/16 08:17:37;;;;;;;38.85;23.23;;;;;;;;;;5053178;28;20060;-65
2022/01/16 08:20:07;;;;;;;37.03;22.85;;;;;;;;;;5053583;28;20497;-65
2022/01/16 08:22:34;;;;;;;36.28;22.33;;;;;;;;;;5053599;28;20136;-65
2022/01/16 08:25:00;;;;;;;36.97;21.60;;;;;;;;;;5053686;28;20084;-66
2022/01/16 08:27:27;;;;;;;34.72;21.48;;;;;;;;;;5053611;28;20141;-65
2022/01/16 08:29:53;;;;;;;33.00;20.35;;;;;;;;;;5052111;28;20406;-65
2022/01/16 08:32:19;;;;;;;35.58;20.85;;;;;;;;;;5053237;28;20049;-65
2022/01/16 08:34:46;;;;;;;34.92;19.05;;;;;;;;;;5053591;28;20061;-65
2022/01/16 08:37:12;;;;;;;31.77;18.48;;;;;;;;;;5053356;28;20179;-65
2022/01/16 08:39:39;;;;;;;32.97;18.52;;;;;;;;;;5053287;28;20148;-66
2022/01/16 08:42:05;;;;;;;29.98;19.02;;;;;;;;;;5062215;28;20049;-66
2022/01/16 08:44:32;;;;;;;32.88;19.45;;;;;;;;;;5056250;28;20530;-66
2022/01/16 08:46:58;;;;;;;26.40;17.35;;;;;;;;;;5052589;28;20053;-65
2022/01/16 08:49:24;;;;;;;33.00;19.20;;;;;;;;;;5052139;28;20052;-66
2022/01/16 08:51:51;;;;;;;33.75;19.17;;;;;;;;;;5052894;28;20064;-65
2022/01/16 08:54:18;;;;;;;31.88;18.00;;;;;;;;;;5052948;28;20057;-65
2022/01/16 08:56:44;;;;;;;29.98;18.58;;;;;;;;;;5052476;28;20049;-65
2022/01/16 08:59:10;;;;;;;28.60;17.02;;;;;;;;;;5052915;28;20060;-66
2022/01/16 09:01:36;;;;;;;25.90;16.85;;;;;;;;;;5039544;28;20069;-65
2022/01/16 09:04:03;;;;;;;25.70;17.05;;;;;;;;;;5051916;28;20054;-65
2022/01/16 09:06:29;;;;;;;25.02;15.88;;;;;;;;;;5052158;28;20433;-65
2022/01/16 09:08:56;;;;;;;27.30;16.60;;;;;;;;;;5052458;28;20501;-67
2022/01/16 09:11:25;;;;;;;31.33;18.10;;;;;;;;;;5053288;28;20512;-65
2022/01/16 09:13:52;;;;;;;27.70;16.75;;;;;;;;;;5052859;28;20111;-65
2022/01/16 09:16:19;;;;;;;28.30;15.93;;;;;;;;;;5053087;28;20140;-65
2022/01/16 09:18:47;;;;;;;30.08;17.42;;;;;;;;;;5052554;28;20053;-66
2022/01/16 09:21:17;;;;;;;27.83;16.67;;;;;;;;;;5050543;28;20053;-66
2022/01/16 09:23:44;;;;;;;28.02;17.92;;;;;;;;;;5049326;28;20057;-65
2022/01/16 09:26:11;;;;;;;26.10;16.20;;;;;;;;;;5046636;28;20054;-65
2022/01/16 09:28:37;;;;;;;27.42;17.10;;;;;;;;;;5052762;28;20059;-65
2022/01/16 09:31:05;;;;;;;24.83;16.33;;;;;;;;;;5052479;28;20059;-66
2022/01/16 09:33:31;;;;;;;28.30;17.77;;;;;;;;;;5051966;28;20049;-67
2022/01/16 09:36:00;;;;;;;25.85;16.80;;;;;;;;;;5051545;28;20061;-65
2022/01/16 09:38:26;;;;;;;26.60;17.10;;;;;;;;;;5053170;28;20053;-66
2022/01/16 09:40:56;;;;;;;25.48;17.70;;;;;;;;;;5052483;28;20054;-65
2022/01/16 09:43:22;;;;;;;33.72;16.92;;;;;;;;;;5052816;28;20064;-66
2022/01/16 09:45:51;;;;;;;26.27;16.52;;;;;;;;;;5051292;28;20119;-66
2022/01/16 09:48:18;;;;;;;28.20;16.58;;;;;;;;;;5052779;28;20080;-66
2022/01/16 09:50:44;;;;;;;30.45;16.63;;;;;;;;;;5052692;28;20058;-66
2022/01/16 09:53:12;;;;;;;26.73;14.68;;;;;;;;;;5051712;28;20501;-66
2022/01/16 09:55:38;;;;;;;29.70;15.13;;;;;;;;;;5052111;28;20059;-66
2022/01/16 09:58:05;;;;;;;24.00;14.27;;;;;;;;;;5052545;28;20053;-66
2022/01/16 10:00:31;;;;;;;26.70;14.32;;;;;;;;;;5051533;28;20068;-66
2022/01/16 10:02:58;;;;;;;23.75;13.68;;;;;;;;;;5034201;28;20497;-67
2022/01/16 10:05:29;;;;;;;25.83;13.98;;;;;;;;;;5051393;28;20057;-66
2022/01/16 10:07:56;;;;;;;26.13;14.40;;;;;;;;;;5051958;28;20046;-66
2022/01/16 10:10:27;;;;;;;22.27;14.15;;;;;;;;;;5056117;28;20080;-66
2022/01/16 10:12:57;;;;;;;31.73;14.52;;;;;;;;;;5038248;28;20068;-66
2022/01/16 10:15:27;;;;;;;26.35;14.77;;;;;;;;;;5051294;28;20528;-66
2022/01/16 10:17:55;;;;;;;29.02;15.75;;;;;;;;;;5051818;28;20058;-65
2022/01/16 10:20:22;;;;;;;25.85;16.13;;;;;;;;;;5051381;28;20428;-66
2022/01/16 10:22:50;;;;;;;31.77;17.67;;;;;;;;;;5054247;28;20507;-66
2022/01/16 10:25:33;;;;;;;31.42;18.20;;;;;;;;;;5054047;28;20443;-66
2022/01/16 10:28:02;;;;;;;35.63;19.50;;;;;;;;;;5055133;28;20049;-66
2022/01/16 10:30:38;;;;;;;33.45;18.20;;;;;;;;;;5055076;28;20064;-66
2022/01/16 10:33:09;;;;;;;33.13;18.20;;;;;;;;;;5054570;28;20567;-67
2022/01/16 10:35:38;;;;;;;43.58;21.35;;;;;;;;;;5053729;28;20501;-66
2022/01/16 10:38:08;;;;;;;38.33;22.05;;;;;;;;;;5054374;28;20057;-66
2022/01/16 10:40:36;;;;;;;41.45;21.08;;;;;;;;;;5053419;28;20057;-65
2022/01/16 10:43:06;;;;;;;45.83;22.70;;;;;;;;;;5054728;28;20052;-66
2022/01/16 10:45:33;;;;;;;49.22;24.05;;;;;;;;;;5054149;28;20500;-69
2022/01/16 10:48:00;;;;;;;48.50;23.58;;;;;;;;;;5054876;28;20057;-66
2022/01/16 10:50:32;;;;;;;46.58;23.20;;;;;;;;;;5054302;28;20053;-67
2022/01/16 10:53:00;;;;;;;52.78;24.73;;;;;;;;;;5054478;28;20111;-67
2022/01/16 10:55:41;;;;;;;53.15;26.98;;;;;;;;;;5052791;28;20057;-67
2022/01/16 10:58:13;;;;;;;59.15;27.60;;;;;;;;;;5054114;28;20141;-67
2022/01/16 11:00:41;;;;;;;55.35;26.08;;;;;;;;;;5054183;28;20485;-68
2022/01/16 11:03:08;;;;;;;59.40;27.35;;;;;;;;;;5053206;28;20053;-65
2022/01/16 11:05:36;;;;;;;59.78;27.65;;;;;;;;;;5054144;28;20053;-66
2022/01/16 11:08:04;;;;;;;54.97;25.55;;;;;;;;;;5052830;28;20068;-66
2022/01/16 11:10:34;;;;;;;63.72;28.05;;;;;;;;;;5054276;28;20054;-66
2022/01/16 11:13:05;;;;;;;57.15;27.15;;;;;;;;;;5051107;28;20049;-66
2022/01/16 11:15:32;;;;;;;62.58;28.15;;;;;;;;;;5054634;28;20060;-66
2022/01/16 11:17:59;;;;;;;65.63;28.70;;;;;;;;;;5059820;28;20175;-66
2022/01/16 11:20:36;;;;;;;66.18;29.38;;;;;;;;;;5052960;28;20081;-67
2022/01/16 11:25:55;;;;;;;73.70;29.02;;;;;;;;;;5052970;28;20054;-67
2022/01/16 11:28:22;;;;;;;65.13;27.83;;;;;;;;;;5053344;28;20076;-67
2022/01/16 11:30:49;;;;;;;71.20;31.23;;;;;;;;;;5053842;28;20485;-67
2022/01/16 11:33:20;;;;;;;73.22;30.40;;;;;;;;;;5053972;28;20085;-66
2022/01/16 11:35:52;;;;;;;62.88;29.35;;;;;;;;;;5053226;28;20053;-67
2022/01/16 11:38:19;;;;;;;69.68;30.27;;;;;;;;;;5053040;28;20064;-66
2022/01/16 11:40:46;;;;;;;65.03;29.00;;;;;;;;;;5035004;28;20060;-67
2022/01/16 11:43:18;;;;;;;67.15;29.08;;;;;;;;;;5053507;28;20052;-66
2022/01/16 11:45:45;;;;;;;69.95;28.52;;;;;;;;;;5053510;28;20084;-67
2022/01/16 11:48:12;;;;;;;72.30;28.83;;;;;;;;;;5053080;28;20485;-67
2022/01/16 11:50:38;;;;;;;64.40;27.88;;;;;;;;;;5052814;28;20049;-69
2022/01/16 11:53:04;;;;;;;67.53;29.45;;;;;;;;;;5052967;28;20179;-68
2022/01/16 11:55:34;;;;;;;70.75;30.15;;;;;;;;;;5052715;28;20060;-67
2022/01/16 11:58:04;;;;;;;69.30;29.33;;;;;;;;;;5050256;28;20060;-68
2022/01/16 12:00:43;;;;;;;68.65;29.45;;;;;;;;;;5047782;28;20049;-67
2022/01/16 12:03:45;;;;;;;67.78;30.33;;;;;;;;;;5053575;28;20509;-67
2022/01/16 12:06:31;;;;;;;70.57;28.33;;;;;;;;;;5031864;28;20060;-68
2022/01/16 12:09:00;;;;;;;71.30;29.25;;;;;;;;;;5035264;28;20100;-68
2022/01/16 12:11:36;;;;;;;66.43;27.83;;;;;;;;;;5053386;28;20501;-69
2022/01/16 12:14:03;;;;;;;67.72;27.02;;;;;;;;;;5053966;28;20440;-67
2022/01/16 12:16:42;;;;;;;72.80;28.80;;;;;;;;;;5052642;28;20053;-66
2022/01/16 12:19:45;;;;;;;70.07;28.92;;;;;;;;;;5037444;28;20076;-66
2022/01/16 12:22:14;;;;;;;78.47;29.70;;;;;;;;;;5061949;28;20493;-66
2022/01/16 12:24:43;;;;;;;71.90;30.05;;;;;;;;;;5053093;28;20133;-67
2022/01/16 12:27:23;;;;;;;75.75;31.40;;;;;;;;;;5051823;28;20059;-66
2022/01/16 12:30:08;;;;;;;71.47;30.13;;;;;;;;;;5051411;28;20088;-66
2022/01/16 12:32:53;;;;;;;70.07;29.27;;;;;;;;;;5053211;28;20053;-67
2022/01/16 12:35:38;;;;;;;73.22;29.90;;;;;;;;;;5051252;28;20586;-67
2022/01/16 12:38:07;;;;;;;79.68;32.85;;;;;;;;;;5053241;28;20057;-67
2022/01/16 12:40:34;;;;;;;74.07;29.95;;;;;;;;;;5052498;28;20150;-67
2022/01/16 12:43:01;;;;;;;80.30;31.50;;;;;;;;;;5053253;28;20060;-67
2022/01/16 12:45:29;;;;;;;76.88;30.27;;;;;;;;;;5051914;28;20057;-67
2022/01/16 12:47:56;;;;;;;77.35;31.70;;;;;;;;;;5053099;28;20059;-66
2022/01/16 12:50:22;;;;;;;75.20;31.38;;;;;;;;;;5052162;28;20054;-66
2022/01/16 12:52:49;;;;;;;75.55;30.42;;;;;;;;;;5056683;28;20071;-66
2022/01/16 12:55:15;;;;;;;77.55;31.13;;;;;;;;;;5073626;28;20103;-66
2022/01/16 12:57:41;;;;;;;73.13;30.67;;;;;;;;;;5053535;28;20053;-65
2022/01/16 13:00:11;;;;;;;68.30;29.75;;;;;;;;;;5053793;28;20041;-66
2022/01/16 13:02:37;;;;;;;70.88;29.02;;;;;;;;;;5052084;28;20067;-66
2022/01/16 13:05:05;;;;;;;74.60;31.80;;;;;;;;;;5051674;28;20138;-66
2022/01/16 13:07:58;;;;;;;74.38;30.98;;;;;;;;;;5051258;28;20133;-66
2022/01/16 13:10:24;;;;;;;;;;;;;;;;;;5047406;28;20136;-66
2022/01/16 13:12:51;;;;;;;;;;;;;;;;;;5045317;28;47062;-67
2022/01/16 13:15:17;;;;;;;;;;;;;;;;;;5046137;28;43371;-67
2022/01/16 13:17:43;;;;;;;67.35;28.40;;;;;;;;;;5049997;28;45316;-67
2022/01/16 13:20:20;;;;;;;74.30;30.48;;;;;;;;;;5053853;28;20587;-65
2022/01/16 13:22:49;;;;;;;63.90;26.20;;;;;;;;;;5054110;28;20049;-68
2022/01/16 13:25:17;;;;;;;70.22;28.52;;;;;;;;;;5044572;28;20717;-65
2022/01/16 13:27:44;;;;;;;66.38;27.95;;;;;;;;;;5051497;28;20077;-66
2022/01/16 13:30:25;;;;;;;61.38;28.63;;;;;;;;;;5056694;28;20447;-66
2022/01/16 13:32:52;;;;;;;63.58;27.83;;;;;;;;;;5059821;28;20052;-66
2022/01/16 13:35:29;;;;;;;58.65;25.30;;;;;;;;;;5065017;28;20057;-66
2022/01/16 13:38:05;;;;;;;57.25;25.30;;;;;;;;;;5057330;28;20580;-66
2022/01/16 13:40:38;;;;;;;58.45;25.13;;;;;;;;;;5070278;28;20053;-66
2022/01/16 13:43:12;;;;;;;50.92;23.65;;;;;;;;;;5051005;28;20049;-67
2022/01/16 13:45:43;;;;;;;56.83;26.92;;;;;;;;;;5056243;28;20049;-68
2022/01/16 13:48:19;;;;;;;49.47;25.13;;;;;;;;;;5054224;28;20057;-66
2022/01/16 13:51:02;;;;;;;50.90;24.42;;;;;;;;;;5061431;28;20053;-67
2022/01/16 13:53:36;;;;;;;51.40;24.38;;;;;;;;;;5066042;28;20613;-67
2022/01/16 13:56:17;;;;;;;51.67;24.05;;;;;;;;;;5062090;28;20059;-67
2022/01/16 13:58:44;;;;;;;41.58;22.15;;;;;;;;;;5055680;28;20123;-67
2022/01/16 14:01:15;;;;;;;42.22;21.50;;;;;;;;;;5057193;28;20068;-67
2022/01/16 14:04:02;;;;;;;43.60;20.75;;;;;;;;;;5053880;28;20091;-68
2022/01/16 14:06:29;;;;;;;41.38;20.60;;;;;;;;;;5065240;28;20057;-67
2022/01/16 14:09:00;;;;;;;38.97;20.00;;;;;;;;;;5056625;28;20514;-67
2022/01/16 14:11:27;;;;;;;36.22;19.05;;;;;;;;;;5048554;28;20057;-66
2022/01/16 14:13:58;;;;;;;42.60;20.40;;;;;;;;;;5062855;28;20128;-66
2022/01/16 14:16:36;;;;;;;40.75;21.73;;;;;;;;;;5058523;28;20145;-66
2022/01/16 14:24:08;;;;;;;35.65;19.00;;;;;;;;;;5056414;28;20068;-67
2022/01/16 14:26:50;;;;;;;37.55;18.88;;;;;;;;;;5058776;28;20592;-67
2022/01/16 14:29:20;;;;;;;34.17;18.48;;;;;;;;;;5057469;28;20056;-67
2022/01/16 14:31:48;;;;;;;34.20;17.65;;;;;;;;;;5069749;28;20168;-67
2022/01/16 14:34:15;;;;;;;45.58;18.67;;;;;;;;;;5055078;28;20064;-66
2022/01/16 14:36:42;;;;;;;31.90;17.48;;;;;;;;;;5056218;28;20059;-66
2022/01/16 14:39:42;;;;;;;29.30;17.55;;;;;;;;;;5064706;28;20648;-67
2022/01/16 14:42:30;;;;;;;29.25;16.63;;;;;;;;;;5056737;28;20053;-68
2022/01/16 14:44:57;;;;;;;32.80;17.58;;;;;;;;;;5058211;28;20517;-68
2022/01/16 14:47:23;;;;;;;32.35;17.58;;;;;;;;;;5067371;28;20057;-67
2022/01/16 14:49:49;;;;;;;30.42;17.77;;;;;;;;;;5073361;28;20045;-67
2022/01/16 14:52:16;;;;;;;37.22;17.95;;;;;;;;;;5055176;28;20060;-68
2022/01/16 14:54:47;;;;;;;38.00;18.63;;;;;;;;;;5046701;28;20061;-68
2022/01/16 14:57:14;;;;;;;36.63;19.70;;;;;;;;;;5051178;28;20520;-68
2022/01/16 14:59:40;;;;;;;34.25;19.95;;;;;;;;;;5052570;28;20053;-68
2022/01/16 15:02:08;;;;;;;36.50;20.38;;;;;;;;;;5052045;28;20065;-69
2022/01/16 15:04:34;;;;;;;45.65;22.77;;;;;;;;;;5052434;28;20096;-67
2022/01/16 15:07:01;;;;;;;40.78;21.92;;;;;;;;;;5051551;28;20046;-68
2022/01/16 15:09:27;;;;;;;39.85;20.63;;;;;;;;;;5052454;28;20060;-68
2022/01/16 15:11:53;;;;;;;44.90;23.80;;;;;;;;;;5052239;28;20053;-68
2022/01/16 15:14:19;;;;;;;40.53;22.38;;;;;;;;;;5051941;28;20057;-68
2022/01/16 15:16:46;;;;;;;51.50;23.27;;;;;;;;;;5052826;28;20053;-68